createdAt,value
2022-12-03T00:02:04.177Z,20.52
2022-12-03T00:05:07.160Z,20.77
2022-12-03T00:08:10.150Z,20.60
2022-12-03T00:11:14.559Z,20.70
2022-12-03T00:14:17.339Z,20.83
2022-12-03T00:17:20.124Z,19.48
2022-12-03T00:20:26.240Z,20.70
2022-12-03T00:23:28.891Z,20.20
2022-12-03T00:26:31.641Z,19.48
2022-12-03T00:29:34.606Z,19.12
2022-12-03T00:32:37.403Z,20.60
2022-12-03T00:35:40.151Z,20.45
2022-12-03T00:38:49.115Z,19.57
2022-12-03T00:41:52.009Z,20.08
2022-12-03T00:44:55.273Z,19.95
2022-12-03T00:47:58.217Z,19.33
2022-12-03T00:51:01.014Z,19.60
2022-12-03T00:54:03.869Z,19.83
2022-12-03T00:57:06.846Z,20.15
2022-12-03T01:00:11.567Z,20.42
2022-12-03T01:03:17.574Z,19.67
2022-12-03T01:06:20.453Z,21.50
2022-12-03T01:09:26.314Z,19.37
2022-12-03T01:12:29.131Z,19.55
2022-12-03T01:15:31.891Z,20.70
2022-12-03T01:18:34.607Z,20.10
2022-12-03T01:21:38.104Z,20.17
2022-12-03T01:24:40.773Z,20.87
2022-12-03T01:27:46.568Z,20.58
2022-12-03T01:31:08.001Z,21.58
2022-12-03T01:34:10.855Z,19.80
2022-12-03T01:37:13.921Z,20.37
2022-12-03T01:40:20.473Z,20.53
2022-12-03T01:43:24.585Z,22.05
2022-12-03T01:46:34.001Z,21.23
2022-12-03T01:49:43.548Z,20.35
2022-12-03T01:52:46.544Z,21.65
2022-12-03T01:55:49.310Z,20.20
2022-12-03T01:58:52.113Z,20.15
2022-12-03T02:01:54.939Z,21.33
2022-12-03T02:04:58.251Z,19.48
2022-12-03T02:08:01.560Z,20.80
2022-12-03T02:11:21.073Z,19.50
2022-12-03T02:14:23.921Z,19.98
2022-12-03T02:17:27.695Z,19.58
2022-12-03T02:20:32.318Z,20.70
2022-12-03T02:23:56.079Z,19.98
2022-12-03T02:26:58.873Z,20.60
2022-12-03T02:30:01.797Z,22.02
2022-12-03T02:33:06.128Z,20.65
2022-12-03T02:36:09.720Z,20.45
2022-12-03T02:39:12.375Z,19.92
2022-12-03T02:42:33.648Z,19.40
2022-12-03T02:45:42.169Z,19.35
2022-12-03T02:48:47.925Z,21.27
2022-12-03T02:51:50.731Z,20.62
2022-12-03T02:54:54.013Z,20.08
2022-12-03T02:57:59.963Z,19.87
2022-12-03T03:01:05.902Z,21.90
2022-12-03T03:04:09.148Z,19.62
2022-12-03T03:07:11.994Z,19.95
2022-12-03T03:10:19.124Z,19.83
2022-12-03T03:13:22.196Z,26.13
2022-12-03T03:16:28.037Z,22.40
2022-12-03T03:19:31.366Z,23.33
2022-12-03T03:22:39.731Z,23.27
2022-12-03T03:25:45.296Z,21.10
2022-12-03T03:28:50.226Z,18.97
2022-12-03T03:31:53.248Z,20.95
2022-12-03T03:34:56.572Z,20.30
2022-12-03T03:37:59.917Z,19.40
2022-12-03T03:41:04.306Z,19.30
2022-12-03T03:44:10.679Z,18.83
2022-12-03T03:47:13.622Z,18.40
2022-12-03T03:50:16.959Z,18.62
2022-12-03T03:53:20.283Z,20.05
2022-12-03T03:56:24.183Z,19.08
2022-12-03T03:59:27.012Z,19.43
2022-12-03T04:02:29.921Z,18.87
2022-12-03T04:05:32.736Z,19.37
2022-12-03T04:08:36.100Z,20.42
2022-12-03T04:11:57.253Z,20.00
2022-12-03T04:15:00.108Z,18.93
2022-12-03T04:18:21.485Z,20.00
2022-12-03T04:21:43.357Z,20.35
2022-12-03T04:24:46.073Z,20.65
2022-12-03T04:28:07.410Z,22.23
2022-12-03T04:31:28.734Z,24.03
2022-12-03T04:34:50.692Z,23.38
2022-12-03T04:37:54.589Z,22.02
2022-12-03T04:41:06.420Z,22.17
2022-12-03T04:44:30.570Z,24.55
2022-12-03T04:47:39.860Z,21.63
2022-12-03T04:50:43.304Z,21.37
2022-12-03T04:53:46.414Z,24.35
2022-12-03T04:56:52.240Z,21.52
2022-12-03T04:59:58.255Z,20.35
2022-12-03T05:03:01.169Z,19.20
2022-12-03T05:06:04.324Z,19.10
2022-12-03T05:09:07.117Z,19.50
2022-12-03T05:12:09.820Z,18.35
2022-12-03T05:15:12.566Z,18.52
2022-12-03T05:18:15.483Z,18.57
2022-12-03T05:21:18.299Z,17.08
2022-12-03T05:24:21.128Z,19.58
2022-12-03T05:27:24.458Z,19.00
2022-12-03T05:30:27.357Z,17.95
2022-12-03T05:33:30.350Z,18.33
2022-12-03T05:36:33.123Z,18.12
2022-12-03T05:39:36.148Z,18.70
2022-12-03T05:42:54.576Z,18.77
2022-12-03T05:45:57.304Z,19.25
2022-12-03T05:49:00.295Z,18.57
2022-12-03T05:52:03.197Z,18.48
2022-12-03T05:55:07.345Z,18.42
2022-12-03T05:58:10.212Z,18.75
2022-12-03T06:01:12.994Z,19.58
2022-12-03T06:04:15.699Z,19.97
2022-12-03T06:07:18.751Z,18.98
2022-12-03T06:10:25.443Z,18.85
2022-12-03T06:13:28.193Z,19.87
2022-12-03T06:16:31.079Z,20.12
2022-12-03T06:19:34.174Z,19.23
2022-12-03T06:22:36.965Z,19.10
2022-12-03T06:25:39.731Z,23.15
2022-12-03T06:28:48.633Z,24.27
2022-12-03T06:31:51.910Z,23.17
2022-12-03T06:34:55.099Z,22.43
2022-12-03T06:37:58.210Z,22.60
2022-12-03T06:41:01.151Z,23.05
2022-12-03T06:44:04.039Z,23.48
2022-12-03T06:47:06.809Z,22.73
2022-12-03T06:50:09.889Z,22.07
2022-12-03T06:53:12.842Z,23.87
2022-12-03T06:56:20.058Z,23.87
2022-12-03T06:59:25.045Z,21.17
2022-12-03T07:02:28.325Z,22.20
2022-12-03T07:05:31.417Z,21.20
2022-12-03T07:08:34.639Z,20.02
2022-12-03T07:11:40.796Z,20.37
2022-12-03T07:14:45.446Z,21.45
2022-12-03T07:17:50.272Z,21.73
2022-12-03T07:20:53.114Z,20.53
2022-12-03T07:23:56.016Z,21.73
2022-12-03T07:26:59.804Z,22.75
2022-12-03T07:30:02.815Z,20.27
2022-12-03T07:33:05.783Z,21.45
2022-12-03T07:36:09.298Z,21.60
2022-12-03T07:39:12.171Z,21.65
2022-12-03T07:42:15.093Z,21.48
2022-12-03T07:45:17.987Z,21.58
2022-12-03T07:48:20.963Z,22.25
2022-12-03T07:51:28.804Z,26.37
2022-12-03T07:54:34.778Z,23.12
2022-12-03T07:57:37.817Z,20.85
2022-12-03T08:00:41.222Z,20.45
2022-12-03T08:03:44.043Z,20.67
2022-12-03T08:06:46.869Z,22.27
2022-12-03T08:09:50.367Z,21.67
2022-12-03T08:12:54.047Z,21.37
2022-12-03T08:16:01.417Z,23.45
2022-12-03T08:19:08.355Z,22.33
2022-12-03T08:22:15.463Z,21.57
2022-12-03T08:25:26.907Z,21.67
2022-12-03T08:28:30.784Z,21.00
2022-12-03T08:31:34.198Z,20.85
2022-12-03T08:34:44.383Z,19.90
2022-12-03T08:37:47.221Z,19.97
2022-12-03T08:40:52.184Z,20.75
2022-12-03T08:43:55.190Z,18.50
2022-12-03T08:47:10.171Z,20.48
2022-12-03T08:50:40.562Z,24.00
2022-12-03T08:53:55.347Z,22.30
2022-12-03T08:57:02.411Z,22.70
2022-12-03T09:00:20.945Z,21.23
2022-12-03T09:03:24.707Z,26.00
2022-12-03T09:06:27.552Z,33.47
2022-12-03T09:09:30.902Z,22.23
2022-12-03T09:12:33.654Z,21.90
2022-12-03T09:15:36.444Z,39.58
2022-12-03T09:18:39.902Z,21.65
2022-12-03T09:21:42.832Z,20.77
2022-12-03T09:24:45.693Z,24.63
2022-12-03T09:27:48.653Z,19.92
2022-12-03T09:30:51.476Z,21.77
2022-12-03T09:33:54.500Z,19.15
2022-12-03T09:36:57.271Z,19.67
2022-12-03T09:40:00.174Z,19.10
2022-12-03T09:43:03.013Z,22.13
2022-12-03T09:46:06.160Z,17.95
2022-12-03T09:49:15.733Z,18.02
2022-12-03T09:52:26.670Z,19.10
2022-12-03T09:55:31.044Z,17.43
2022-12-03T09:58:35.053Z,15.15
2022-12-03T10:01:41.166Z,17.83
2022-12-03T10:04:44.042Z,18.83
2022-12-03T10:07:47.953Z,15.20
2022-12-03T10:10:53.095Z,18.30
2022-12-03T10:13:56.916Z,16.45
2022-12-03T10:16:59.970Z,17.02
2022-12-03T10:20:02.975Z,16.30
2022-12-03T10:23:06.129Z,16.37
2022-12-03T10:26:08.894Z,17.13
2022-12-03T10:29:20.857Z,16.55
2022-12-03T10:32:29.225Z,16.08
2022-12-03T10:35:41.530Z,14.80
2022-12-03T10:38:44.795Z,16.17
2022-12-03T10:41:47.967Z,16.97
2022-12-03T10:45:07.710Z,19.48
2022-12-03T10:48:19.836Z,17.95
2022-12-03T10:51:22.752Z,17.40
2022-12-03T10:54:26.518Z,20.27
2022-12-03T10:57:32.771Z,17.30
2022-12-03T11:00:36.029Z,16.77
2022-12-03T11:03:38.976Z,18.87
2022-12-03T11:06:41.881Z,17.75
2022-12-03T11:09:46.607Z,17.62
2022-12-03T11:13:27.695Z,17.80
2022-12-03T11:16:39.623Z,18.12
2022-12-03T11:19:45.577Z,18.48
2022-12-03T11:22:49.326Z,18.98
2022-12-03T11:25:52.339Z,19.02
2022-12-03T11:28:55.905Z,19.00
2022-12-03T11:31:58.819Z,18.83
2022-12-03T11:35:16.694Z,18.95
2022-12-03T11:38:38.199Z,19.27
2022-12-03T11:41:41.023Z,19.83
2022-12-03T11:44:44.009Z,24.37
2022-12-03T11:48:00.451Z,23.92
2022-12-03T11:51:03.715Z,18.17
2022-12-03T11:54:06.697Z,18.90
2022-12-03T11:57:36.737Z,38.85
2022-12-03T12:00:39.678Z,18.40
2022-12-03T12:03:44.421Z,19.83
2022-12-03T12:06:53.152Z,17.75
2022-12-03T12:09:56.476Z,18.15
2022-12-03T12:12:59.509Z,18.45
2022-12-03T12:16:05.650Z,21.33
2022-12-03T12:19:28.723Z,19.37
2022-12-03T12:22:32.169Z,16.92
2022-12-03T12:25:37.901Z,18.95
2022-12-03T12:28:41.277Z,17.58
2022-12-03T12:31:44.782Z,18.93
2022-12-03T12:34:51.464Z,19.55
2022-12-03T12:38:03.257Z,19.27
2022-12-03T12:41:08.324Z,17.70
2022-12-03T12:44:13.439Z,18.73
2022-12-03T12:47:16.326Z,18.83
2022-12-03T12:50:20.047Z,17.98
2022-12-03T12:53:27.497Z,18.62
2022-12-03T12:56:31.826Z,18.65
2022-12-03T12:59:34.974Z,16.58
2022-12-03T13:02:42.726Z,18.10
2022-12-03T13:05:48.144Z,18.35
2022-12-03T13:08:51.341Z,20.12
2022-12-03T13:11:57.545Z,19.48
2022-12-03T13:15:01.210Z,19.35
2022-12-03T13:18:34.859Z,17.43
2022-12-03T13:21:44.815Z,17.10
2022-12-03T13:24:52.410Z,18.17
2022-12-03T13:27:55.270Z,18.25
2022-12-03T13:31:10.247Z,18.62
2022-12-03T13:34:24.847Z,19.77
2022-12-03T13:37:28.597Z,18.83
2022-12-03T13:40:35.359Z,20.27
2022-12-03T13:43:44.606Z,20.37
2022-12-03T13:46:47.847Z,19.95
2022-12-03T13:49:57.056Z,21.00
2022-12-03T13:53:02.564Z,20.95
2022-12-03T13:56:27.500Z,19.85
2022-12-03T13:59:33.525Z,19.45
2022-12-03T14:02:36.927Z,20.88
2022-12-03T14:05:40.233Z,21.07
2022-12-03T14:08:43.177Z,22.25
2022-12-03T14:12:04.548Z,22.60
2022-12-03T14:15:08.996Z,22.98
2022-12-03T14:18:14.826Z,22.65
2022-12-03T14:21:17.745Z,26.17
2022-12-03T14:24:20.586Z,25.15
2022-12-03T14:27:25.052Z,36.55
2022-12-03T14:30:28.965Z,26.37
2022-12-03T14:33:32.617Z,24.45
2022-12-03T14:36:35.506Z,27.83
2022-12-03T14:39:38.340Z,25.33
2022-12-03T14:42:41.261Z,24.73
2022-12-03T14:45:44.593Z,29.45
2022-12-03T14:48:48.299Z,28.33
2022-12-03T14:51:51.150Z,27.47
2022-12-03T14:54:54.116Z,26.33
2022-12-03T14:57:56.874Z,27.35
2022-12-03T15:00:59.860Z,25.37
2022-12-03T15:04:02.804Z,25.48
2022-12-03T15:07:06.171Z,27.37
2022-12-03T15:10:09.498Z,24.92
2022-12-03T15:13:12.479Z,24.85
2022-12-03T15:16:15.793Z,23.00
2022-12-03T15:19:18.763Z,25.60
2022-12-03T15:22:22.327Z,25.33
2022-12-03T15:25:26.297Z,24.98
2022-12-03T15:28:31.970Z,23.52
2022-12-03T15:31:34.922Z,22.10
2022-12-03T15:34:38.087Z,21.50
2022-12-03T15:37:41.086Z,21.57
2022-12-03T15:40:44.186Z,23.27
2022-12-03T15:43:51.309Z,22.62
2022-12-03T15:46:54.558Z,24.83
2022-12-03T15:49:57.497Z,25.40
2022-12-03T15:53:06.864Z,26.73
2022-12-03T15:56:12.534Z,30.25
2022-12-03T15:59:18.027Z,45.90
2022-12-03T16:02:21.145Z,31.02
2022-12-03T16:05:25.867Z,27.73
2022-12-03T16:08:28.941Z,26.60
2022-12-03T16:11:32.441Z,28.48
2022-12-03T16:14:35.698Z,30.45
2022-12-03T16:17:38.660Z,41.08
2022-12-03T16:20:41.549Z,44.40
2022-12-03T16:23:44.952Z,34.50
2022-12-03T16:26:47.875Z,30.67
2022-12-03T16:29:51.080Z,28.50
2022-12-03T16:32:57.430Z,27.80
2022-12-03T16:36:01.451Z,27.75
2022-12-03T16:39:05.453Z,27.27
2022-12-03T16:42:14.234Z,27.02
2022-12-03T16:45:33.710Z,28.83
2022-12-03T16:48:37.103Z,28.85
2022-12-03T16:51:43.859Z,30.85
2022-12-03T16:54:47.196Z,29.43
2022-12-03T16:57:50.136Z,30.37
2022-12-03T17:00:56.514Z,29.05
2022-12-03T17:03:59.399Z,30.17
2022-12-03T17:07:02.353Z,36.13
2022-12-03T17:10:06.006Z,42.30
2022-12-03T17:13:10.401Z,42.80
2022-12-03T17:16:13.905Z,43.67
2022-12-03T17:19:17.504Z,47.40
2022-12-03T17:22:20.392Z,58.85
2022-12-03T17:25:23.578Z,108.80
2022-12-03T17:28:26.626Z,73.87
2022-12-03T17:31:29.779Z,44.97
2022-12-03T17:34:32.644Z,29.23
2022-12-03T17:37:36.322Z,32.30
2022-12-03T17:40:39.300Z,31.27
2022-12-03T17:43:42.386Z,30.67
2022-12-03T17:46:45.382Z,34.60
2022-12-03T17:49:48.600Z,34.90
2022-12-03T17:52:51.528Z,33.63
2022-12-03T17:55:54.703Z,30.63
2022-12-03T17:58:58.705Z,32.55
2022-12-03T18:02:07.022Z,31.30
2022-12-03T18:05:10.233Z,35.88
2022-12-03T18:08:13.267Z,43.22
2022-12-03T18:11:16.601Z,34.63
2022-12-03T18:14:19.427Z,36.25
2022-12-03T18:17:22.242Z,35.17
2022-12-03T18:20:25.415Z,33.10
2022-12-03T18:23:29.026Z,32.47
2022-12-03T18:26:32.047Z,34.17
2022-12-03T18:29:35.144Z,37.42
2022-12-03T18:32:38.276Z,37.25
2022-12-03T18:35:42.093Z,38.10
2022-12-03T18:38:45.415Z,38.88
2022-12-03T18:41:49.867Z,43.23
2022-12-03T18:44:55.391Z,43.33
2022-12-03T18:47:59.328Z,44.03
2022-12-03T18:51:17.633Z,46.45
2022-12-03T18:54:27.749Z,42.20
2022-12-03T18:57:36.332Z,40.83
2022-12-03T19:00:42.929Z,41.60
2022-12-03T19:03:51.705Z,42.70
2022-12-03T19:06:56.124Z,39.83
2022-12-03T19:09:59.508Z,45.70
2022-12-03T19:13:03.974Z,46.13
2022-12-03T19:16:08.421Z,42.75
2022-12-03T19:19:11.874Z,46.70
2022-12-03T19:22:15.138Z,47.58
2022-12-03T19:25:18.265Z,41.85
2022-12-03T19:28:21.466Z,39.47
2022-12-03T19:31:24.678Z,41.75
2022-12-03T19:34:28.634Z,43.50
2022-12-03T19:37:34.067Z,44.22
2022-12-03T19:40:37.324Z,43.95
2022-12-03T19:43:40.872Z,43.27
2022-12-03T19:46:44.189Z,43.58
2022-12-03T19:49:47.346Z,42.22
2022-12-03T19:52:53.623Z,40.38
2022-12-03T19:56:15.001Z,48.33
2022-12-03T19:59:18.166Z,33.23
2022-12-03T20:02:21.065Z,30.98
2022-12-03T20:05:31.847Z,28.92
2022-12-03T20:08:39.412Z,33.65
2022-12-03T20:11:45.134Z,31.60
2022-12-03T20:14:51.920Z,29.90
2022-12-03T20:17:55.103Z,26.62
2022-12-03T20:20:59.232Z,29.90
2022-12-03T20:24:02.985Z,28.52
2022-12-03T20:27:06.072Z,25.50
2022-12-03T20:30:09.459Z,33.37
2022-12-03T20:33:13.856Z,26.55
2022-12-03T20:36:24.129Z,28.15
2022-12-03T20:39:27.348Z,28.52
2022-12-03T20:42:31.630Z,32.17
2022-12-03T20:45:34.701Z,27.13
2022-12-03T20:48:38.507Z,25.12
2022-12-03T20:51:42.827Z,27.80
2022-12-03T20:54:46.296Z,29.48
2022-12-03T20:57:50.296Z,26.58
2022-12-03T21:00:53.212Z,29.00
2022-12-03T21:03:57.927Z,28.12
2022-12-03T21:07:00.865Z,25.62
2022-12-03T21:10:04.059Z,27.90
2022-12-03T21:13:07.112Z,27.13
2022-12-03T21:16:13.100Z,26.87
2022-12-03T21:19:18.175Z,27.00
2022-12-03T21:22:21.043Z,29.48
2022-12-03T21:25:26.720Z,26.52
2022-12-03T21:28:29.991Z,25.35
2022-12-03T21:31:33.087Z,26.47
2022-12-03T21:34:36.687Z,29.45
2022-12-03T21:37:39.745Z,30.05
2022-12-03T21:40:42.858Z,28.33
2022-12-03T21:43:45.973Z,28.23
2022-12-03T21:47:11.701Z,28.47
2022-12-03T21:50:11.996Z,25.35
2022-12-03T21:53:14.831Z,25.62
2022-12-03T21:56:27.324Z,27.15
2022-12-03T21:59:33.100Z,27.75
2022-12-03T22:02:39.311Z,27.30
2022-12-03T22:05:43.764Z,31.70
2022-12-03T22:08:47.175Z,27.90
2022-12-03T22:11:50.140Z,27.73
2022-12-03T22:14:53.983Z,25.95
2022-12-03T22:17:56.868Z,25.40
2022-12-03T22:21:07.234Z,25.62
2022-12-03T22:24:10.134Z,24.42
2022-12-03T22:27:17.151Z,27.13
2022-12-03T22:30:20.196Z,24.35
2022-12-03T22:33:23.716Z,26.10
2022-12-03T22:36:27.604Z,26.37
2022-12-03T22:39:30.540Z,27.62
2022-12-03T22:42:33.415Z,27.65
2022-12-03T22:45:36.303Z,27.80
2022-12-03T22:48:40.404Z,45.03
2022-12-03T22:51:46.457Z,39.83
2022-12-03T22:54:55.666Z,27.58
2022-12-03T22:57:58.496Z,28.23
2022-12-03T23:01:03.068Z,29.98
2022-12-03T23:04:08.281Z,25.97
2022-12-03T23:07:11.255Z,27.95
2022-12-03T23:10:14.704Z,26.92
2022-12-03T23:13:18.635Z,28.50
2022-12-03T23:16:29.312Z,26.33
2022-12-03T23:19:32.300Z,23.47
2022-12-03T23:22:35.166Z,25.40
2022-12-03T23:25:41.232Z,23.98
2022-12-03T23:28:45.742Z,24.15
2022-12-03T23:31:48.706Z,24.73
2022-12-03T23:34:54.959Z,23.40
2022-12-03T23:37:57.781Z,23.85
2022-12-03T23:41:18.100Z,23.80
2022-12-03T23:44:20.951Z,25.37
2022-12-03T23:47:24.250Z,23.52
2022-12-03T23:50:27.965Z,25.17
2022-12-03T23:53:30.953Z,24.48
2022-12-03T23:56:33.943Z,24.42
2022-12-03T23:59:37.007Z,24.55
